In Rescue
 
Open Full Screen Window  High Contrast Mode
Wind Gusting 00 knots
04
March 19, 2019 7:26 PM EDT
Weather Information
Wind Direction
  230 °
Wind Speed
  04 kt (5 mph)
Wind Gust
  00 kt (0 mph)
Altimeter
30.27 in
Visibility
10 SM
Temperature
05° C
41° F
Dewpoint
-08° C
18° F
Humidity
39%
Sky Condition
Clear
VFR

METAR KFFX 192326Z AUTO 23004KT 10SM CLR 05/M08 A3027 RMK AO2 T00501077

FAA Disclaimer: The data displayed is for advisory purposes only and is not to be used for flight planning or operations.